Time;durP1;ratioP1;P1;durP2;ratioP2;P2;SDS_P1;SDS_P2;PMS_P1;PMS_P2;Temp;Humidity;BMP_temperature;BMP_pressure;BME280_temperature;BME280_humidity;BME280_pressure;Samples;Min_cycle;Max_cycle;Signal;HPM_P1;HPM_P2
2023/08/07 00:00:24;;;;;;;;;;;;;;;;;;1297898;22;19994;-78
2023/08/07 00:00:55;;;;;;;;;;;;;;;;;;1297531;22;19907;-78
2023/08/07 00:01:25;;;;;;;;;;;;;;;;;;1297712;22;19903;-78
2023/08/07 00:01:55;;;;;;;;;;;;;;;;;;1297900;22;19914;-78
2023/08/07 00:02:25;;;;;;;;;;;;;;;;;;1272810;22;19916;-77
2023/08/07 00:02:56;;;;;;;;;;;;;;;;;;1259175;22;20271;-77
2023/08/07 00:03:26;;;;;;;;;;;;;;;;;;1259747;23;19913;-77
2023/08/07 00:03:56;;;;;;;;;;;;;;;;;;1259377;23;19995;-78
2023/08/07 00:04:26;;;;;;;;;;;;;;;;;;1265917;23;19990;-75
2023/08/07 00:04:57;;;;;;;;;;;;;;;;;;1265850;23;19905;-79
2023/08/07 00:05:28;;;;;;;;;;;;;;;;;;1266088;23;19992;-78
2023/08/07 00:05:58;;;;;;;;;;;;;;;;;;1259228;23;19905;-77
2023/08/07 00:06:28;;;;;;;;;;;;;;;;;;1285030;23;19904;-77
2023/08/07 00:06:58;;;;;;;;;;;;;;;;;;1278435;23;19919;-76
2023/08/07 00:07:29;;;;;;;;;;;;;;;;;;1272780;23;19972;-79
2023/08/07 00:07:59;;;;;;;;;;;;;;;;;;1278735;23;19904;-78
2023/08/07 00:08:31;;;;;;;;;;;;;;;;;;1247642;23;19914;-76
2023/08/07 00:09:01;;;;;;;;;;;;;;;;;;1253756;23;19912;-78
2023/08/07 00:09:31;;;;;;;;;;;;;;;;;;1285121;23;19904;-75
2023/08/07 00:10:03;;;;;;;;;;;;;;;;;;1285204;23;20006;-77
2023/08/07 00:10:33;;;;;;;;;;;;;;;;;;1285072;23;19907;-78
2023/08/07 00:11:03;;;;;;;;;;;;;;;;;;1283988;23;19904;-77
2023/08/07 00:11:33;;;;;;;;;;;;;;;;;;1259417;23;20396;-77
2023/08/07 00:12:04;;;;;;;;;;;;;;;;;;1259441;23;19928;-76
2023/08/07 00:12:34;;;;;;;;;;;;;;;;;;1259453;23;19905;-77
2023/08/07 00:13:05;;;;;;;;;;;;;;;;;;1259424;23;19905;-78
2023/08/07 00:13:35;;;;;;;;;;;;;;;;;;1259587;23;19912;-77
2023/08/07 00:14:05;;;;;;;;;;;;;;;;;;1284912;23;19904;-78
2023/08/07 00:14:35;;;;;;;;;;;;;;;;;;1291443;23;20447;-77
2023/08/07 00:15:06;;;;;;;;;;;;;;;;;;1284807;23;20305;-77
2023/08/07 00:15:36;;;;;;;;;;;;;;;;;;1285187;23;19904;-75
2023/08/07 00:16:06;;;;;;;;;;;;;;;;;;1253661;23;19964;-77
2023/08/07 00:16:36;;;;;;;;;;;;;;;;;;1253577;23;19906;-79
2023/08/07 00:17:08;;;;;;;;;;;;;;;;;;1259205;23;19935;-76
2023/08/07 00:17:38;;;;;;;;;;;;;;;;;;1259765;23;19905;-75
2023/08/07 00:18:08;;;;;;;;;;;;;;;;;;1265747;23;19905;-77
2023/08/07 00:18:38;;;;;;;;;;;;;;;;;;1265903;23;19905;-77
2023/08/07 00:19:09;;;;;;;;;;;;;;;;;;1265859;23;19951;-78
2023/08/07 00:19:39;;;;;;;;;;;;;;;;;;1266055;23;19921;-78
2023/08/07 00:20:09;;;;;;;;;;;;;;;;;;1265901;23;20377;-78
2023/08/07 00:20:39;;;;;;;;;;;;;;;;;;1265897;23;19913;-78
2023/08/07 00:21:10;;;;;;;;;;;;;;;;;;1265972;23;20325;-78
2023/08/07 00:21:40;;;;;;;;;;;;;;;;;;1259409;23;20341;-77
2023/08/07 00:22:10;;;;;;;;;;;;;;;;;;1259464;23;19920;-78
2023/08/07 00:22:40;;;;;;;;;;;;;;;;;;1259520;23;20285;-78
2023/08/07 00:23:11;;;;;;;;;;;;;;;;;;1259562;23;20243;-78
2023/08/07 00:23:41;;;;;;;;;;;;;;;;;;1265967;23;20332;-79
2023/08/07 00:24:11;;;;;;;;;;;;;;;;;;1259422;23;19968;-77
2023/08/07 00:24:41;;;;;;;;;;;;;;;;;;1259461;23;20365;-77
2023/08/07 00:25:12;;;;;;;;;;;;;;;;;;1259487;23;20361;-77
2023/08/07 00:25:42;;;;;;;;;;;;;;;;;;1284951;23;20251;-77
2023/08/07 00:26:12;;;;;;;;;;;;;;;;;;1291270;23;19909;-77
2023/08/07 00:26:42;;;;;;;;;;;;;;;;;;1291194;23;19904;-76
2023/08/07 00:27:47;;;;;;;;;;;;;;;;;;1265748;23;19936;-76
2023/08/07 00:28:17;;;;;;;;;;;;;;;;;;1265532;23;19906;-77
2023/08/07 00:28:47;;;;;;;;;;;;;;;;;;1265478;23;19909;-78
2023/08/07 00:29:17;;;;;;;;;;;;;;;;;;1265840;23;19912;-78
2023/08/07 00:29:47;;;;;;;;;;;;;;;;;;1266036;23;19951;-79
2023/08/07 00:30:18;;;;;;;;;;;;;;;;;;1265926;23;19987;-75
2023/08/07 00:30:48;;;;;;;;;;;;;;;;;;1265993;23;19909;-78
2023/08/07 00:31:18;;;;;;;;;;;;;;;;;;1266141;23;20026;-78
2023/08/07 00:31:49;;;;;;;;;;;;;;;;;;1265959;23;19909;-78
2023/08/07 00:32:19;;;;;;;;;;;;;;;;;;1261229;23;19967;-75
2023/08/07 00:32:49;;;;;;;;;;;;;;;;;;1259866;23;19910;-78
2023/08/07 00:33:20;;;;;;;;;;;;;;;;;;1259755;23;19905;-78
2023/08/07 00:33:53;;;;;;;;;;;;;;;;;;1259844;23;19916;-77
2023/08/07 00:34:24;;;;;;;;;;;;;;;;;;1259524;23;19906;-78
2023/08/07 00:34:54;;;;;;;;;;;;;;;;;;1259314;23;19996;-77
2023/08/07 00:35:24;;;;;;;;;;;;;;;;;;1253584;23;20012;-78
2023/08/07 00:35:54;;;;;;;;;;;;;;;;;;1253492;23;19913;-78
2023/08/07 00:36:25;;;;;;;;;;;;;;;;;;1259742;23;19913;-78
2023/08/07 00:36:55;;;;;;;;;;;;;;;;;;1259338;23;19916;-79
2023/08/07 00:37:25;;;;;;;;;;;;;;;;;;1259968;23;19910;-78
2023/08/07 00:37:56;;;;;;;;;;;;;;;;;;1259798;23;19909;-78
2023/08/07 00:38:26;;;;;;;;;;;;;;;;;;1259964;23;19905;-78
2023/08/07 00:38:56;;;;;;;;;;;;;;;;;;1259760;23;19909;-75
2023/08/07 00:39:26;;;;;;;;;;;;;;;;;;1260007;23;19905;-77
2023/08/07 00:39:57;;;;;;;;;;;;;;;;;;1260298;23;19905;-78
2023/08/07 00:40:27;;;;;;;;;;;;;;;;;;1260070;23;19906;-78
2023/08/07 00:40:59;;;;;;;;;;;;;;;;;;1259794;23;19913;-79
2023/08/07 00:41:29;;;;;;;;;;;;;;;;;;1259574;23;19905;-78
2023/08/07 00:42:00;;;;;;;;;;;;;;;;;;1253364;23;19905;-78
2023/08/07 00:42:30;;;;;;;;;;;;;;;;;;1253727;23;19912;-77
2023/08/07 00:43:00;;;;;;;;;;;;;;;;;;1253481;23;20286;-78
2023/08/07 00:43:30;;;;;;;;;;;;;;;;;;1259589;23;20313;-78
2023/08/07 00:44:01;;;;;;;;;;;;;;;;;;1268805;23;19907;-78
2023/08/07 00:44:31;;;;;;;;;;;;;;;;;;1279482;23;19990;-78
2023/08/07 00:45:01;;;;;;;;;;;;;;;;;;1278658;23;20305;-77
2023/08/07 00:45:31;;;;;;;;;;;;;;;;;;1285508;23;20248;-81
2023/08/07 00:46:02;;;;;;;;;;;;;;;;;;1285208;23;19904;-79
2023/08/07 00:46:32;;;;;;;;;;;;;;;;;;1285608;23;19928;-78
2023/08/07 00:47:02;;;;;;;;;;;;;;;;;;1285324;23;19966;-78
2023/08/07 00:47:33;;;;;;;;;;;;;;;;;;1285887;23;19908;-78
2023/08/07 00:48:03;;;;;;;;;;;;;;;;;;1285301;23;20244;-78
2023/08/07 00:48:33;;;;;;;;;;;;;;;;;;1286076;23;19904;-78
2023/08/07 00:49:04;;;;;;;;;;;;;;;;;;1285277;23;19903;-76
2023/08/07 00:49:34;;;;;;;;;;;;;;;;;;1278765;23;20322;-77
2023/08/07 00:50:04;;;;;;;;;;;;;;;;;;1278764;23;19975;-79
2023/08/07 00:50:34;;;;;;;;;;;;;;;;;;1272709;23;19990;-78
2023/08/07 00:51:07;;;;;;;;;;;;;;;;;;1272632;23;20257;-78
2023/08/07 00:51:37;;;;;;;;;;;;;;;;;;1279004;23;19905;-79
2023/08/07 00:52:08;;;;;;;;;;;;;;;;;;1272527;23;19932;-78
2023/08/07 00:52:38;;;;;;;;;;;;;;;;;;1272674;23;19905;-78
2023/08/07 00:53:08;;;;;;;;;;;;;;;;;;1272552;23;20261;-78
2023/08/07 00:53:39;;;;;;;;;;;;;;;;;;1272826;23;20253;-79
2023/08/07 00:54:09;;;;;;;;;;;;;;;;;;1278666;23;20237;-78
2023/08/07 00:54:39;;;;;;;;;;;;;;;;;;1278834;23;20328;-77
2023/08/07 00:55:10;;;;;;;;;;;;;;;;;;1278707;23;20309;-78
2023/08/07 00:55:40;;;;;;;;;;;;;;;;;;1278968;23;20300;-79
2023/08/07 00:56:10;;;;;;;;;;;;;;;;;;1285059;23;19987;-78
2023/08/07 00:56:40;;;;;;;;;;;;;;;;;;1285144;23;19958;-79
2023/08/07 00:57:11;;;;;;;;;;;;;;;;;;1278816;23;19904;-77
2023/08/07 00:57:41;;;;;;;;;;;;;;;;;;1272653;23;19908;-79
2023/08/07 00:58:12;;;;;;;;;;;;;;;;;;1272680;23;19904;-78
2023/08/07 00:58:42;;;;;;;;;;;;;;;;;;1272867;23;19904;-78
2023/08/07 00:59:12;;;;;;;;;;;;;;;;;;1272684;23;20334;-75
2023/08/07 00:59:42;;;;;;;;;;;;;;;;;;1278832;23;20349;-78
2023/08/07 01:00:13;;;;;;;;;;;;;;;;;;1278859;23;20400;-79
2023/08/07 01:00:43;;;;;;;;;;;;;;;;;;1272908;23;19912;-79
2023/08/07 01:01:14;;;;;;;;;;;;;;;;;;1272547;23;19913;-78
2023/08/07 01:01:44;;;;;;;;;;;;;;;;;;1272805;23;20250;-77
2023/08/07 01:02:14;;;;;;;;;;;;;;;;;;1264393;23;19926;-77
2023/08/07 01:02:45;;;;;;;;;;;;;;;;;;1278489;23;19905;-78
2023/08/07 01:03:15;;;;;;;;;;;;;;;;;;1278645;23;20253;-78
2023/08/07 01:03:45;;;;;;;;;;;;;;;;;;1278819;23;20364;-78
2023/08/07 01:04:15;;;;;;;;;;;;;;;;;;1285327;23;20256;-78
2023/08/07 01:04:46;;;;;;;;;;;;;;;;;;1285458;23;20316;-79
2023/08/07 01:05:16;;;;;;;;;;;;;;;;;;1285237;23;19911;-75
2023/08/07 01:05:46;;;;;;;;;;;;;;;;;;1285418;23;19911;-78
2023/08/07 01:06:16;;;;;;;;;;;;;;;;;;1285367;23;19904;-79
2023/08/07 01:06:47;;;;;;;;;;;;;;;;;;1284820;23;19915;-78
2023/08/07 01:07:17;;;;;;;;;;;;;;;;;;1284725;23;20419;-79
2023/08/07 01:07:47;;;;;;;;;;;;;;;;;;1278746;23;20373;-78
2023/08/07 01:08:18;;;;;;;;;;;;;;;;;;1278711;23;19911;-76
2023/08/07 01:08:48;;;;;;;;;;;;;;;;;;1272313;23;19915;-78
2023/08/07 01:09:18;;;;;;;;;;;;;;;;;;1266422;23;20330;-78
2023/08/07 01:09:48;;;;;;;;;;;;;;;;;;1272691;23;19940;-79
2023/08/07 01:10:19;;;;;;;;;;;;;;;;;;1272508;23;19979;-78
2023/08/07 01:10:49;;;;;;;;;;;;;;;;;;1272724;23;20035;-78
2023/08/07 01:11:19;;;;;;;;;;;;;;;;;;1279172;23;19910;-79
2023/08/07 01:11:49;;;;;;;;;;;;;;;;;;1278760;23;19959;-76
2023/08/07 01:12:19;;;;;;;;;;;;;;;;;;1278599;23;19999;-78
2023/08/07 01:12:50;;;;;;;;;;;;;;;;;;1272550;23;19947;-75
2023/08/07 01:13:20;;;;;;;;;;;;;;;;;;1272050;23;20003;-79
2023/08/07 01:13:50;;;;;;;;;;;;;;;;;;1272511;23;19915;-79
2023/08/07 01:14:20;;;;;;;;;;;;;;;;;;1266441;23;19905;-78
2023/08/07 01:14:51;;;;;;;;;;;;;;;;;;1272553;23;19959;-79
2023/08/07 01:15:21;;;;;;;;;;;;;;;;;;1266440;23;19904;-78
2023/08/07 01:15:51;;;;;;;;;;;;;;;;;;1266334;23;20220;-79
2023/08/07 01:16:21;;;;;;;;;;;;;;;;;;1272790;23;19913;-78
2023/08/07 01:16:52;;;;;;;;;;;;;;;;;;1272593;23;19919;-79
2023/08/07 01:17:22;;;;;;;;;;;;;;;;;;1266423;23;19916;-78
2023/08/07 01:17:53;;;;;;;;;;;;;;;;;;1266356;23;19909;-79
2023/08/07 01:18:23;;;;;;;;;;;;;;;;;;1266626;23;20300;-78
2023/08/07 01:18:54;;;;;;;;;;;;;;;;;;1266525;23;19988;-79
2023/08/07 01:19:25;;;;;;;;;;;;;;;;;;1272839;23;20257;-79
2023/08/07 01:19:55;;;;;;;;;;;;;;;;;;1279027;23;19908;-78
2023/08/07 01:20:25;;;;;;;;;;;;;;;;;;1279343;23;19904;-79
2023/08/07 01:20:55;;;;;;;;;;;;;;;;;;1278928;23;19955;-79
2023/08/07 01:21:25;;;;;;;;;;;;;;;;;;1279251;23;19959;-79
2023/08/07 01:21:56;;;;;;;;;;;;;;;;;;1278469;23;20237;-79
2023/08/07 01:22:26;;;;;;;;;;;;;;;;;;1288663;22;19908;-81
2023/08/07 01:22:56;;;;;;;;;;;;;;;;;;1269563;22;21010;-79
2023/08/07 01:23:27;;;;;;;;;;;;;;;;;;1266074;23;19913;-79
2023/08/07 01:23:57;;;;;;;;;;;;;;;;;;1259785;23;19956;-81
2023/08/07 01:24:27;;;;;;;;;;;;;;;;;;1259865;23;19905;-79
2023/08/07 01:24:57;;;;;;;;;;;;;;;;;;1259805;23;19913;-79
2023/08/07 01:25:29;;;;;;;;;;;;;;;;;;1259985;23;19905;-78
2023/08/07 01:25:59;;;;;;;;;;;;;;;;;;1259820;23;19912;-78
2023/08/07 01:26:29;;;;;;;;;;;;;;;;;;1259933;23;19937;-77
2023/08/07 01:26:59;;;;;;;;;;;;;;;;;;1259599;23;19944;-79
2023/08/07 01:27:29;;;;;;;;;;;;;;;;;;1259873;23;20345;-78
2023/08/07 01:28:00;;;;;;;;;;;;;;;;;;1259773;23;20325;-78
2023/08/07 01:28:30;;;;;;;;;;;;;;;;;;1259426;23;20302;-79
2023/08/07 01:29:00;;;;;;;;;;;;;;;;;;1253274;23;20298;-77
2023/08/07 01:29:31;;;;;;;;;;;;;;;;;;1253379;23;19917;-79
2023/08/07 01:30:03;;;;;;;;;;;;;;;;;;1253206;23;20008;-79
2023/08/07 01:30:33;;;;;;;;;;;;;;;;;;1253502;23;19912;-76
2023/08/07 01:31:04;;;;;;;;;;;;;;;;;;1253387;23;20342;-78
2023/08/07 01:31:34;;;;;;;;;;;;;;;;;;1247871;23;20363;-78
2023/08/07 01:32:34;;;;;;;;;;;;;;;;;;1266777;23;19922;-78
2023/08/07 01:33:05;;;;;;;;;;;;;;;;;;1291024;23;19939;-79
2023/08/07 01:33:35;;;;;;;;;;;;;;;;;;1291678;22;19931;-76
2023/08/07 01:34:08;;;;;;;;;;;;;;;;;;1291671;23;19904;-78
2023/08/07 01:35:08;;;;;;;;;;;;;;;;;;1268685;22;20051;-77
2023/08/07 01:35:38;;;;;;;;;;;;;;;;;;1265909;23;20004;-78
2023/08/07 01:36:08;;;;;;;;;;;;;;;;;;1265869;23;19995;-77
2023/08/07 01:36:39;;;;;;;;;;;;;;;;;;1265896;23;19928;-78
2023/08/07 01:37:09;;;;;;;;;;;;;;;;;;1265643;23;19928;-78
2023/08/07 01:37:39;;;;;;;;;;;;;;;;;;1265744;23;19905;-78
2023/08/07 01:38:09;;;;;;;;;;;;;;;;;;1264625;23;19971;-79
2023/08/07 01:38:40;;;;;;;;;;;;;;;;;;1265588;23;19912;-78
2023/08/07 01:39:10;;;;;;;;;;;;;;;;;;1265603;23;19940;-79
2023/08/07 01:39:40;;;;;;;;;;;;;;;;;;1265777;23;20027;-78
2023/08/07 01:40:10;;;;;;;;;;;;;;;;;;1265741;23;20143;-76
2023/08/07 01:40:41;;;;;;;;;;;;;;;;;;1265585;23;20273;-78
2023/08/07 01:41:11;;;;;;;;;;;;;;;;;;1264085;23;20372;-78
2023/08/07 01:41:41;;;;;;;;;;;;;;;;;;1264405;23;20231;-79
2023/08/07 01:42:11;;;;;;;;;;;;;;;;;;1265391;23;20282;-77
2023/08/07 01:42:42;;;;;;;;;;;;;;;;;;1264790;23;19904;-78
2023/08/07 01:43:12;;;;;;;;;;;;;;;;;;1264840;23;20318;-78
2023/08/07 01:43:42;;;;;;;;;;;;;;;;;;1265116;23;19951;-78
2023/08/07 01:44:12;;;;;;;;;;;;;;;;;;1265474;23;19912;-79
2023/08/07 01:44:43;;;;;;;;;;;;;;;;;;1259429;23;19906;-79
2023/08/07 01:45:13;;;;;;;;;;;;;;;;;;1265187;23;20013;-78
2023/08/07 01:45:43;;;;;;;;;;;;;;;;;;1265282;23;20342;-78
2023/08/07 01:46:13;;;;;;;;;;;;;;;;;;1265245;23;20308;-78
2023/08/07 01:46:44;;;;;;;;;;;;;;;;;;1265127;23;19905;-78
2023/08/07 01:47:14;;;;;;;;;;;;;;;;;;1265315;23;19932;-78
2023/08/07 01:47:44;;;;;;;;;;;;;;;;;;1265475;23;19905;-77
2023/08/07 01:48:14;;;;;;;;;;;;;;;;;;1259311;23;19905;-79
2023/08/07 01:48:44;;;;;;;;;;;;;;;;;;1265253;23;20346;-78
2023/08/07 01:49:15;;;;;;;;;;;;;;;;;;1264966;23;20306;-78
2023/08/07 01:49:45;;;;;;;;;;;;;;;;;;1265542;23;20238;-78
2023/08/07 01:50:15;;;;;;;;;;;;;;;;;;1265303;23;19905;-78
2023/08/07 01:50:45;;;;;;;;;;;;;;;;;;1265357;23;19991;-79
2023/08/07 01:51:16;;;;;;;;;;;;;;;;;;1265379;23;19936;-79
2023/08/07 01:51:46;;;;;;;;;;;;;;;;;;1265508;23;19913;-79
2023/08/07 01:52:16;;;;;;;;;;;;;;;;;;1265816;23;19927;-79
2023/08/07 01:52:46;;;;;;;;;;;;;;;;;;1265581;23;19913;-79
2023/08/07 01:53:17;;;;;;;;;;;;;;;;;;1265356;23;19905;-79
2023/08/07 01:53:47;;;;;;;;;;;;;;;;;;1265501;23;19916;-79
2023/08/07 01:54:17;;;;;;;;;;;;;;;;;;1265324;23;20330;-80
2023/08/07 01:54:48;;;;;;;;;;;;;;;;;;1265461;23;19959;-79
2023/08/07 01:55:18;;;;;;;;;;;;;;;;;;1265453;23;19905;-80
2023/08/07 01:55:48;;;;;;;;;;;;;;;;;;1265220;23;19916;-79
2023/08/07 01:56:18;;;;;;;;;;;;;;;;;;1265114;23;19915;-79
2023/08/07 01:56:49;;;;;;;;;;;;;;;;;;1265473;23;19958;-79
2023/08/07 01:57:19;;;;;;;;;;;;;;;;;;1258924;23;19909;-79
2023/08/07 01:57:49;;;;;;;;;;;;;;;;;;1259283;23;19915;-80
2023/08/07 01:58:19;;;;;;;;;;;;;;;;;;1265210;23;19905;-79
2023/08/07 01:59:20;;;;;;;;;;;;;;;;;;1250267;22;19924;-79
2023/08/07 01:59:50;;;;;;;;;;;;;;;;;;1259485;23;19992;-79
2023/08/07 02:00:20;;;;;;;;;;;;;;;;;;1259710;23;20274;-78
2023/08/07 02:00:50;;;;;;;;;;;;;;;;;;1259648;23;20359;-78
2023/08/07 02:01:21;;;;;;;;;;;;;;;;;;1259653;23;19955;-79
2023/08/07 02:01:51;;;;;;;;;;;;;;;;;;1259688;23;19909;-78
2023/08/07 02:02:21;;;;;;;;;;;;;;;;;;1259725;23;19955;-79
2023/08/07 02:02:51;;;;;;;;;;;;;;;;;;1259574;23;19906;-78
2023/08/07 02:03:21;;;;;;;;;;;;;;;;;;1259889;23;19905;-78
2023/08/07 02:03:52;;;;;;;;;;;;;;;;;;1259636;23;20411;-78
2023/08/07 02:04:22;;;;;;;;;;;;;;;;;;1259969;23;19906;-79
2023/08/07 02:04:52;;;;;;;;;;;;;;;;;;1259017;23;19909;-79
2023/08/07 02:05:23;;;;;;;;;;;;;;;;;;1259442;23;19933;-79
2023/08/07 02:05:53;;;;;;;;;;;;;;;;;;1259404;23;19916;-79
2023/08/07 02:06:23;;;;;;;;;;;;;;;;;;1259811;23;19905;-79
2023/08/07 02:06:53;;;;;;;;;;;;;;;;;;1253245;23;19993;-78
2023/08/07 02:07:24;;;;;;;;;;;;;;;;;;1253523;23;19984;-79
2023/08/07 02:07:56;;;;;;;;;;;;;;;;;;1253346;23;19909;-79
2023/08/07 02:08:26;;;;;;;;;;;;;;;;;;1248265;23;20428;-80
2023/08/07 02:08:57;;;;;;;;;;;;;;;;;;1247317;23;19948;-80
2023/08/07 02:09:28;;;;;;;;;;;;;;;;;;1247828;23;20258;-80
2023/08/07 02:09:58;;;;;;;;;;;;;;;;;;1241722;23;19915;-80
2023/08/07 02:10:28;;;;;;;;;;;;;;;;;;1241847;23;19906;-80
2023/08/07 02:11:01;;;;;;;;;;;;;;;;;;1247365;23;20335;-80
2023/08/07 02:11:31;;;;;;;;;;;;;;;;;;1254154;23;19928;-79
2023/08/07 02:12:02;;;;;;;;;;;;;;;;;;1253658;23;19952;-79
2023/08/07 02:12:33;;;;;;;;;;;;;;;;;;1259483;23;19905;-79
2023/08/07 02:13:03;;;;;;;;;;;;;;;;;;1259474;23;19905;-78
2023/08/07 02:13:33;;;;;;;;;;;;;;;;;;1259608;23;19905;-79
2023/08/07 02:14:03;;;;;;;;;;;;;;;;;;1259306;23;19932;-79
2023/08/07 02:14:33;;;;;;;;;;;;;;;;;;1253029;23;19906;-78
2023/08/07 02:15:04;;;;;;;;;;;;;;;;;;1259026;23;20002;-77
2023/08/07 02:15:34;;;;;;;;;;;;;;;;;;1259486;23;20361;-76
2023/08/07 02:16:04;;;;;;;;;;;;;;;;;;1259150;23;20334;-77
2023/08/07 02:16:34;;;;;;;;;;;;;;;;;;1259266;23;19912;-77
2023/08/07 02:17:04;;;;;;;;;;;;;;;;;;1253072;23;19913;-78
2023/08/07 02:17:37;;;;;;;;;;;;;;;;;;1252233;23;19918;-76
2023/08/07 02:18:07;;;;;;;;;;;;;;;;;;1278710;23;20276;-77
2023/08/07 02:18:37;;;;;;;;;;;;;;;;;;1284662;23;19912;-77
2023/08/07 02:19:08;;;;;;;;;;;;;;;;;;1284925;23;19912;-77
2023/08/07 02:19:38;;;;;;;;;;;;;;;;;;1285262;23;19986;-77
2023/08/07 02:20:08;;;;;;;;;;;;;;;;;;1285070;23;19911;-78
2023/08/07 02:20:38;;;;;;;;;;;;;;;;;;1284987;23;20340;-78
2023/08/07 02:21:09;;;;;;;;;;;;;;;;;;1284980;23;19911;-78
2023/08/07 02:21:39;;;;;;;;;;;;;;;;;;1284905;23;19908;-78
2023/08/07 02:27:21;;;;;;;;;;;;;;;;;;1285207;23;20285;-77
2023/08/07 02:27:51;;;;;;;;;;;;;;;;;;1285035;23;19994;-77
2023/08/07 02:28:21;;;;;;;;;;;;;;;;;;1285354;23;20387;-77
2023/08/07 02:28:51;;;;;;;;;;;;;;;;;;1284976;23;20315;-78
2023/08/07 02:29:22;;;;;;;;;;;;;;;;;;1285295;23;20238;-78
2023/08/07 02:29:52;;;;;;;;;;;;;;;;;;1285087;23;19908;-78
2023/08/07 02:30:23;;;;;;;;;;;;;;;;;;1285094;23;19951;-78
2023/08/07 02:30:54;;;;;;;;;;;;;;;;;;1284935;23;20321;-78
2023/08/07 02:31:24;;;;;;;;;;;;;;;;;;1285313;23;19935;-79
2023/08/07 02:31:54;;;;;;;;;;;;;;;;;;1285112;23;19908;-78
2023/08/07 02:32:25;;;;;;;;;;;;;;;;;;1284711;23;19946;-78
2023/08/07 02:34:55;;;;;;;;;;;;;;;;;;1264126;22;20690;-80
2023/08/07 02:43:11;;;;;;;;;;;;;;;;;;1269550;22;20067;-80
2023/08/07 02:43:41;;;;;;;;;;;;;;;;;;1260813;22;19935;-78
2023/08/07 02:44:12;;;;;;;;;;;;;;;;;;1262427;23;20603;-80
2023/08/07 02:45:21;;;;;;;;;;;;;;;;;;1285402;23;20360;-79
2023/08/07 02:45:51;;;;;;;;;;;;;;;;;;1285114;23;19908;-78
2023/08/07 02:46:21;;;;;;;;;;;;;;;;;;1285373;23;19910;-78
2023/08/07 02:46:52;;;;;;;;;;;;;;;;;;1284907;23;19914;-78
2023/08/07 02:47:22;;;;;;;;;;;;;;;;;;1285278;23;19912;-78
2023/08/07 02:47:55;;;;;;;;;;;;;;;;;;1285157;23;20317;-78
2023/08/07 02:48:25;;;;;;;;;;;;;;;;;;1285280;23;19943;-78
2023/08/07 02:48:55;;;;;;;;;;;;;;;;;;1284887;23;20403;-78
2023/08/07 02:49:25;;;;;;;;;;;;;;;;;;1285299;23;20244;-78
2023/08/07 02:49:55;;;;;;;;;;;;;;;;;;1284895;23;20249;-78
2023/08/07 02:50:27;;;;;;;;;;;;;;;;;;1284732;23;19904;-78
2023/08/07 02:50:57;;;;;;;;;;;;;;;;;;1284687;23;19904;-78
2023/08/07 02:51:28;;;;;;;;;;;;;;;;;;1284956;23;19995;-78
2023/08/07 02:53:18;;;;;;;;;;;;;;;;;;1251802;22;20607;-75
2023/08/07 02:53:48;;;;;;;;;;;;;;;;;;1257074;23;19956;-76
2023/08/07 02:54:18;;;;;;;;;;;;;;;;;;1259366;23;19906;-76
2023/08/07 02:54:49;;;;;;;;;;;;;;;;;;1258210;23;19909;-76
2023/08/07 02:55:19;;;;;;;;;;;;;;;;;;1257689;23;20002;-76
2023/08/07 02:55:49;;;;;;;;;;;;;;;;;;1259008;23;20413;-76
2023/08/07 02:56:19;;;;;;;;;;;;;;;;;;1273788;22;19935;-77
2023/08/07 02:56:49;;;;;;;;;;;;;;;;;;1289911;23;20415;-76
2023/08/07 02:57:20;;;;;;;;;;;;;;;;;;1291518;22;19986;-77
2023/08/07 02:57:50;;;;;;;;;;;;;;;;;;1285437;22;19942;-76
2023/08/07 02:58:58;;;;;;;;;;;;;;;;;;1275012;23;20006;-77
2023/08/07 02:59:28;;;;;;;;;;;;;;;;;;1277403;23;19995;-77
2023/08/07 02:59:58;;;;;;;;;;;;;;;;;;1278201;23;20345;-76
2023/08/07 03:00:28;;;;;;;;;;;;;;;;;;1277728;23;20284;-76
2023/08/07 03:00:58;;;;;;;;;;;;;;;;;;1277970;23;19904;-76
2023/08/07 03:01:29;;;;;;;;;;;;;;;;;;1278285;23;19943;-76
2023/08/07 03:01:59;;;;;;;;;;;;;;;;;;1277284;23;20003;-77
2023/08/07 03:02:29;;;;;;;;;;;;;;;;;;1278053;23;19911;-77
2023/08/07 03:03:00;;;;;;;;;;;;;;;;;;1277954;23;20227;-77
2023/08/07 03:03:30;;;;;;;;;;;;;;;;;;1276096;23;19904;-76
2023/08/07 03:04:00;;;;;;;;;;;;;;;;;;1270308;23;19905;-76
2023/08/07 03:04:31;;;;;;;;;;;;;;;;;;1270335;23;19905;-75
2023/08/07 03:05:01;;;;;;;;;;;;;;;;;;1277232;23;20013;-76
2023/08/07 03:05:31;;;;;;;;;;;;;;;;;;1271795;23;19990;-74
2023/08/07 03:06:01;;;;;;;;;;;;;;;;;;1265657;23;19905;-75
2023/08/07 03:06:32;;;;;;;;;;;;;;;;;;1271650;23;19904;-73
2023/08/07 03:07:02;;;;;;;;;;;;;;;;;;1271820;23;19944;-75
2023/08/07 03:07:32;;;;;;;;;;;;;;;;;;1271560;23;20273;-75
2023/08/07 03:08:03;;;;;;;;;;;;;;;;;;1278064;23;19908;-75
2023/08/07 03:08:33;;;;;;;;;;;;;;;;;;1271547;23;20305;-76
2023/08/07 03:09:03;;;;;;;;;;;;;;;;;;1272113;23;19991;-76
2023/08/07 03:09:33;;;;;;;;;;;;;;;;;;1277667;23;19982;-75
2023/08/07 03:10:04;;;;;;;;;;;;;;;;;;1278002;23;19907;-76
2023/08/07 03:10:34;;;;;;;;;;;;;;;;;;1277725;23;19911;-77
2023/08/07 03:11:04;;;;;;;;;;;;;;;;;;1277808;23;19987;-76
2023/08/07 03:11:34;;;;;;;;;;;;;;;;;;1271517;23;19905;-75
2023/08/07 03:12:05;;;;;;;;;;;;;;;;;;1271845;23;19936;-76
2023/08/07 03:12:37;;;;;;;;;;;;;;;;;;1271497;23;19926;-76
2023/08/07 03:13:07;;;;;;;;;;;;;;;;;;1272520;23;19928;-76
2023/08/07 03:13:37;;;;;;;;;;;;;;;;;;1277783;23;19905;-78
2023/08/07 03:14:08;;;;;;;;;;;;;;;;;;1278166;23;20300;-78
2023/08/07 03:14:38;;;;;;;;;;;;;;;;;;1278784;23;20267;-76
2023/08/07 03:15:08;;;;;;;;;;;;;;;;;;1277845;23;19911;-78
2023/08/07 03:15:38;;;;;;;;;;;;;;;;;;1277112;23;19935;-78
2023/08/07 03:16:08;;;;;;;;;;;;;;;;;;1277964;23;19931;-77
2023/08/07 03:16:39;;;;;;;;;;;;;;;;;;1277555;23;19951;-76
2023/08/07 03:17:09;;;;;;;;;;;;;;;;;;1277138;23;20269;-75
2023/08/07 03:17:39;;;;;;;;;;;;;;;;;;1277828;23;20242;-76
2023/08/07 03:18:09;;;;;;;;;;;;;;;;;;1271540;23;20461;-75
2023/08/07 03:18:40;;;;;;;;;;;;;;;;;;1277899;23;19963;-76
2023/08/07 03:19:10;;;;;;;;;;;;;;;;;;1277706;23;19904;-77
2023/08/07 03:19:40;;;;;;;;;;;;;;;;;;1272015;23;20353;-76
2023/08/07 03:20:10;;;;;;;;;;;;;;;;;;1271074;23;20419;-76
2023/08/07 03:20:41;;;;;;;;;;;;;;;;;;1278152;23;19926;-74
2023/08/07 03:21:11;;;;;;;;;;;;;;;;;;1277662;23;19927;-75
2023/08/07 03:21:42;;;;;;;;;;;;;;;;;;1278126;23;19904;-76
2023/08/07 03:22:12;;;;;;;;;;;;;;;;;;1277857;23;20020;-77
2023/08/07 03:22:42;;;;;;;;;;;;;;;;;;1281383;22;19926;-78
2023/08/07 03:23:47;;;;;;;;;;;;;;;;;;1284190;22;19934;-75
2023/08/07 03:24:17;;;;;;;;;;;;;;;;;;1283811;23;20363;-77
2023/08/07 03:24:48;;;;;;;;;;;;;;;;;;1284727;23;20395;-75
2023/08/07 03:25:18;;;;;;;;;;;;;;;;;;1284299;23;20350;-77
2023/08/07 03:25:48;;;;;;;;;;;;;;;;;;1284822;23;19908;-75
2023/08/07 03:26:18;;;;;;;;;;;;;;;;;;1283905;23;19994;-76
2023/08/07 03:26:49;;;;;;;;;;;;;;;;;;1284761;23;19915;-76
2023/08/07 03:27:19;;;;;;;;;;;;;;;;;;1283907;23;19965;-75
2023/08/07 03:27:49;;;;;;;;;;;;;;;;;;1284356;23;19914;-74
2023/08/07 03:28:19;;;;;;;;;;;;;;;;;;1283703;23;19911;-76
2023/08/07 03:28:50;;;;;;;;;;;;;;;;;;1278324;23;20417;-78
2023/08/07 03:29:21;;;;;;;;;;;;;;;;;;1271860;23;20229;-75
2023/08/07 03:29:51;;;;;;;;;;;;;;;;;;1278209;23;19908;-74
2023/08/07 03:30:21;;;;;;;;;;;;;;;;;;1277594;23;19904;-76
2023/08/07 03:30:51;;;;;;;;;;;;;;;;;;1284119;23;19908;-77
2023/08/07 03:31:21;;;;;;;;;;;;;;;;;;1283806;23;19907;-75
2023/08/07 03:31:52;;;;;;;;;;;;;;;;;;1284414;23;20244;-79
2023/08/07 03:32:22;;;;;;;;;;;;;;;;;;1282396;23;20238;-78
2023/08/07 03:32:52;;;;;;;;;;;;;;;;;;1283866;23;19908;-76
2023/08/07 03:33:22;;;;;;;;;;;;;;;;;;1284056;23;19904;-77
2023/08/07 03:33:53;;;;;;;;;;;;;;;;;;1277740;23;19987;-75
2023/08/07 03:34:23;;;;;;;;;;;;;;;;;;1278010;23;20372;-75
2023/08/07 03:34:54;;;;;;;;;;;;;;;;;;1277586;22;19920;-76
2023/08/07 03:35:24;;;;;;;;;;;;;;;;;;1278134;23;19912;-77
2023/08/07 03:35:54;;;;;;;;;;;;;;;;;;1283889;23;19908;-78
2023/08/07 03:36:24;;;;;;;;;;;;;;;;;;1283974;23;19926;-76
2023/08/07 03:36:55;;;;;;;;;;;;;;;;;;1283915;23;19907;-76
2023/08/07 03:37:25;;;;;;;;;;;;;;;;;;1284559;23;19915;-76
2023/08/07 03:37:55;;;;;;;;;;;;;;;;;;1284596;23;19912;-78
2023/08/07 03:38:25;;;;;;;;;;;;;;;;;;1283997;23;19939;-78
2023/08/07 03:38:56;;;;;;;;;;;;;;;;;;1283778;23;19912;-77
2023/08/07 03:39:26;;;;;;;;;;;;;;;;;;1284428;23;19954;-78
2023/08/07 03:39:56;;;;;;;;;;;;;;;;;;1284209;23;19904;-79
2023/08/07 03:40:26;;;;;;;;;;;;;;;;;;1284719;23;19958;-76
2023/08/07 03:40:57;;;;;;;;;;;;;;;;;;1283624;23;19926;-76
2023/08/07 03:41:28;;;;;;;;;;;;;;;;;;1284458;23;20349;-76
2023/08/07 03:41:58;;;;;;;;;;;;;;;;;;1283800;23;19911;-79
2023/08/07 03:42:28;;;;;;;;;;;;;;;;;;1279945;22;20780;-77
2023/08/07 03:42:58;;;;;;;;;;;;;;;;;;1283538;23;19947;-76
2023/08/07 03:43:29;;;;;;;;;;;;;;;;;;1284677;23;19982;-78
2023/08/07 03:43:59;;;;;;;;;;;;;;;;;;1283864;23;19910;-78
2023/08/07 03:44:29;;;;;;;;;;;;;;;;;;1284884;23;19903;-76
2023/08/07 03:44:59;;;;;;;;;;;;;;;;;;1284157;23;19911;-77
2023/08/07 03:45:29;;;;;;;;;;;;;;;;;;1285164;23;20242;-79
2023/08/07 03:46:00;;;;;;;;;;;;;;;;;;1284176;23;19916;-79
2023/08/07 03:46:30;;;;;;;;;;;;;;;;;;1285015;23;20226;-79
2023/08/07 03:47:00;;;;;;;;;;;;;;;;;;1290416;22;19918;-77
2023/08/07 03:47:30;;;;;;;;;;;;;;;;;;1297376;22;19939;-77